Coeur d'Alene, ID (83814)

12:57 AM PDT on September 20, 2014 (GMT -0700)
Downtown Coeur d'Alene | Change Station
CLOSE
Current Station
Personal Weather Station
Location: Coeur d'Alene, ID
Elevation: 2175 ft
Nearby Weather Stations

Elev 2175 ft 47.67 °N, 116.79 °W | Updated 7 minutes ago

Clear
Clear
59.2 °F
Feels Like 59.2 °F
N
4.5
Wind Variable Wind from SE
Gusts 5.4 mph

Today
High -- | Low -- °F
--% Chance of Precip.
Yesterday
High -- | Low -- °F
Precip. -- in
6:31 AM 6:48 PM
Waning Crescent, 14% visible
Pressure 30.12 in
Visibility 10.0 miles
Clouds Clear
Dew Point 53 °F
Humidity 81%
Rainfall 0.00 in
Snow Depth Not available.
UV 0 out of 12
Pollen 7.40 out of 12
Air Quality Not available.
Flu Activity Not available.
METAR KCOE 200735Z AUTO 08004KT 10SM CLR 14/09 A3012 RMK AO1

More Conditions Fewer Conditions

Pressure 30.12 in
Visibility 10.0 miles
Clouds Clear
Dew Point 53 °F
Humidity 81%
Rainfall 0.00 in
Snow Depth Not available.
UV 0 out of 12
Pollen 7.40 out of 12
Air Quality Not available.
Flu Activity Not available.
METAR KCOE 200735Z AUTO 08004KT 10SM CLR 14/09 A3012 RMK AO1

More Conditions Fewer Conditions

10-Day Weather Forecast

Almanac

Astronomy

Sep. 20, 2014 Rise Set
Actual Time 6:31 AM PDT 6:48 PM PDT
Civil Twilight 6:00 AM PDT 7:19 PM PDT
Nautical Twilight 5:23 AM PDT 7:55 PM PDT
Astronomical Twilight 4:46 AM PDT 8:33 PM PDT
Moon 3:03 AM PDT 5:04 PM PDT
Length of Visible Light 13h 19m
Length of Day
12h 17m
Tomorrow will be 3m 25s shorter.
Waning Crescent, 14% of the Moon is Illuminated
Today
Waning Crescent
Sep 24
New
Oct 1
First Quarter
Oct 8
Full
Oct 15
Last Quarter

Today's Extremes

State Highs State Lows

Community

WunderPhotos

Upload Photos

1,754,793 photos uploaded!

WunderBlogs® & News

Nearby

Snow Depth

Station Depth Elevation
Crater Meadows 0 in 5960 ft
Franklin Basin 2 in 8170 ft
Sunset 0 in 5540 ft
Bear Basin 0 in 5350 ft
Island Park 0 in 6290 ft

Earthquake Activity

City Distance Mag. Time & Date
No recent earthquake activity has been reported nearby.
Minimum magnitude displayed is 2.5.

Coastal Water Temperatures

Place Temperature
No Stations Reporting

Nearby Weather Stations